Time;durP1;ratioP1;P1;durP2;ratioP2;P2;SDS_P1;SDS_P2;PMS_P1;PMS_P2;Temp;Humidity;BMP_temperature;BMP_pressure;BME280_temperature;BME280_humidity;BME280_pressure;Samples;Min_cycle;Max_cycle;Signal;HPM_P1;HPM_P2
2022/06/10 00:02:25;;;;;;;7.05;3.65;;;;;;;14.94;96.78;100321.25;12219246;19;20032;-82
2022/06/10 00:06:27;;;;;;;8.00;4.55;;;;;;;14.85;97.46;100312.59;12191327;19;20014;-82
2022/06/10 00:10:29;;;;;;;10.10;4.40;;;;;;;14.80;97.47;100309.75;12218917;19;20028;-84
2022/06/10 00:14:31;;;;;;;8.18;4.40;;;;;;;14.78;97.95;100311.94;12219340;19;20552;-82
2022/06/10 00:18:34;;;;;;;8.93;4.22;;;;;;;14.69;98.88;100316.31;12189335;19;20019;-82
2022/06/10 00:22:36;;;;;;;10.02;4.00;;;;;;;14.66;99.05;100325.16;12224900;19;20091;-83
2022/06/10 00:26:37;;;;;;;8.27;4.22;;;;;;;14.67;99.58;100321.31;12224059;19;20006;-82
2022/06/10 00:30:40;;;;;;;10.48;3.60;;;;;;;14.65;99.69;100326.28;12196995;19;20015;-83
2022/06/10 00:34:42;;;;;;;9.40;4.25;;;;;;;14.65;100.00;100337.38;12199779;19;20018;-83
2022/06/10 00:38:43;;;;;;;9.65;4.50;;;;;;;14.61;100.00;100327.91;12219756;19;20131;-83
2022/06/10 00:42:45;;;;;;;10.45;4.65;;;;;;;14.59;100.00;100320.69;12182840;19;20870;-82
2022/06/10 00:46:47;;;;;;;9.02;3.97;;;;;;;14.54;100.00;100323.41;12219626;19;20059;-82
2022/06/10 00:50:49;;;;;;;9.63;4.65;;;;;;;14.50;100.00;100324.19;12223554;19;20360;-85
2022/06/10 00:54:52;;;;;;;9.10;4.30;;;;;;;14.49;100.00;100322.50;12200751;19;20014;-85
2022/06/10 00:59:20;;;;;;;10.93;4.90;;;;;;;14.47;100.00;100339.41;12244539;19;20111;-82
2022/06/10 01:03:22;;;;;;;6.68;4.03;;;;;;;14.47;100.00;100331.09;12241242;19;20017;-83
2022/06/10 01:07:31;;;;;;;11.43;4.18;;;;;;;14.45;100.00;100327.72;12209369;19;20015;-84
2022/06/10 01:11:51;;;;;;;8.43;3.90;;;;;;;14.47;100.00;100330.25;12240582;19;20027;-83
2022/06/10 01:16:03;;;;;;;11.38;4.30;;;;;;;14.46;100.00;100334.97;12205347;19;20587;-82
2022/06/10 01:20:04;;;;;;;9.15;4.28;;;;;;;14.43;100.00;100346.59;12228325;19;20058;-82
2022/06/10 01:24:28;;;;;;;9.57;4.28;;;;;;;14.38;100.00;100340.16;12227893;19;20126;-83
2022/06/10 01:29:03;;;;;;;10.10;3.97;;;;;;;14.31;100.00;100334.81;12204739;19;20074;-81
2022/06/10 01:33:18;;;;;;;11.23;4.38;;;;;;;14.24;100.00;100340.53;12226995;19;20010;-83
2022/06/10 01:37:36;;;;;;;8.32;4.30;;;;;;;14.19;100.00;100342.44;12200302;19;20062;-83
2022/06/10 01:42:02;;;;;;;9.30;3.95;;;;;;;14.12;100.00;100343.47;12220133;19;20038;-82
2022/06/10 01:46:32;;;;;;;8.90;4.40;;;;;;;14.05;100.00;100342.84;12193384;19;20031;-83
2022/06/10 01:50:55;;;;;;;8.15;4.63;;;;;;;14.03;100.00;100349.75;12223907;19;20066;-81
2022/06/10 01:55:11;;;;;;;10.48;4.50;;;;;;;13.98;100.00;100345.00;12194997;19;20077;-82
2022/06/10 01:59:30;;;;;;;10.63;4.75;;;;;;;13.94;100.00;100338.28;12213660;19;20030;-83
2022/06/10 02:03:58;;;;;;;6.95;4.22;;;;;;;13.88;100.00;100328.25;12200204;19;20030;-83
2022/06/10 02:08:11;;;;;;;9.07;4.47;;;;;;;13.85;100.00;100339.84;12201093;19;20050;-82
2022/06/10 02:12:21;;;;;;;10.13;4.60;;;;;;;13.82;100.00;100343.97;12216387;19;20002;-82
2022/06/10 02:16:27;;;;;;;7.38;4.32;;;;;;;13.79;100.00;100338.94;12189723;19;20023;-81
2022/06/10 02:20:31;;;;;;;8.82;4.25;;;;;;;13.77;100.00;100351.38;12215509;19;20075;-81
2022/06/10 02:24:40;;;;;;;8.38;3.80;;;;;;;13.73;100.00;100351.06;12194805;19;20070;-82
2022/06/10 02:28:50;;;;;;;7.28;4.03;;;;;;;13.72;100.00;100352.16;12203790;19;20006;-82
2022/06/10 02:32:54;;;;;;;7.47;4.35;;;;;;;13.70;100.00;100350.72;12213405;19;20095;-83
2022/06/10 02:36:58;;;;;;;9.63;4.85;;;;;;;13.73;100.00;100358.53;12196137;19;20090;-82
2022/06/10 02:41:09;;;;;;;8.32;4.03;;;;;;;13.71;100.00;100356.00;12217780;19;20133;-81
2022/06/10 02:45:18;;;;;;;10.65;5.40;;;;;;;13.68;100.00;100354.59;12202386;19;20006;-82
2022/06/10 02:49:24;;;;;;;7.63;3.60;;;;;;;13.67;100.00;100358.44;12195008;19;21946;-82
2022/06/10 02:53:26;;;;;;;6.70;4.47;;;;;;;13.66;100.00;100359.56;12204565;19;20093;-81
2022/06/10 03:02:04;;;;;;;7.32;4.47;;;;;;;13.56;100.00;100367.72;12204028;19;20006;-82
2022/06/10 03:06:21;;;;;;;12.27;4.75;;;;;;;13.51;100.00;100375.13;12199470;19;20635;-82
2022/06/10 03:10:39;;;;;;;9.70;4.25;;;;;;;13.48;100.00;100382.00;12186390;19;20015;-82
2022/06/10 03:15:11;;;;;;;6.65;4.20;;;;;;;13.44;100.00;100394.66;12210836;19;20019;-83
2022/06/10 03:19:30;;;;;;;10.32;4.18;;;;;;;13.43;100.00;100382.75;12184133;19;20051;-81
2022/06/10 03:23:43;;;;;;;10.55;4.90;;;;;;;13.42;100.00;100388.56;12210965;19;20006;-82
2022/06/10 03:27:53;;;;;;;9.88;4.68;;;;;;;13.39;100.00;100392.69;12189766;19;20018;-81
2022/06/10 03:32:04;;;;;;;6.80;4.13;;;;;;;13.39;100.00;100395.44;12199736;19;20074;-81
2022/06/10 03:36:14;;;;;;;11.07;4.72;;;;;;;13.40;100.00;100404.59;12203550;19;20034;-81
2022/06/10 03:40:22;;;;;;;9.65;3.97;;;;;;;13.38;100.00;100404.84;12189328;19;20019;-81
2022/06/10 03:44:27;;;;;;;9.95;4.70;;;;;;;13.34;100.00;100411.97;12200137;19;20003;-80
2022/06/10 03:48:33;;;;;;;8.35;4.25;;;;;;;13.32;100.00;100421.63;12181350;19;20620;-82
2022/06/10 03:52:38;;;;;;;9.45;4.35;;;;;;;13.33;100.00;100420.56;12220104;19;20074;-83
2022/06/10 03:56:39;;;;;;;8.57;4.32;;;;;;;13.36;100.00;100422.81;12216935;19;20086;-82
2022/06/10 04:00:42;;;;;;;11.25;4.10;;;;;;;13.37;100.00;100432.78;12194811;19;20006;-84
2022/06/10 04:04:45;;;;;;;;;;;;;;;13.38;100.00;100438.03;12218545;19;20023;-82
2022/06/10 04:08:47;;;;;;;7.73;3.63;;;;;;;13.36;100.00;100445.78;12217547;19;19903;-82
2022/06/10 04:12:49;;;;;;;12.67;4.57;;;;;;;13.31;100.00;100445.69;12194620;19;20070;-82
2022/06/10 04:16:51;;;;;;;8.47;4.23;;;;;;;13.31;100.00;100454.00;12214665;19;20014;-82
2022/06/10 04:20:53;;;;;;;6.18;3.92;;;;;;;13.29;100.00;100463.66;12211493;19;20017;-83
2022/06/10 04:24:54;;;;;;;11.55;4.38;;;;;;;13.29;100.00;100466.41;12193596;19;20002;-83
2022/06/10 04:28:56;;;;;;;6.68;4.25;;;;;;;13.28;100.00;100460.03;12216771;19;20015;-82
2022/06/10 04:32:59;;;;;;;9.95;4.90;;;;;;;13.28;100.00;100464.75;12216765;19;20007;-82
2022/06/10 04:37:00;;;;;;;10.23;4.57;;;;;;;13.30;100.00;100466.19;12185862;19;20010;-81
2022/06/10 04:41:05;;;;;;;8.65;4.40;;;;;;;13.33;100.00;100476.75;12214195;19;20022;-81
2022/06/10 04:45:07;;;;;;;12.77;4.88;;;;;;;13.38;100.00;100475.97;12214178;19;20019;-81
2022/06/10 04:49:09;;;;;;;8.17;4.70;;;;;;;13.44;100.00;100481.34;12195521;19;20480;-83
2022/06/10 04:53:11;;;;;;;13.70;5.57;;;;;;;13.47;100.00;100491.06;12202657;19;20093;-80
2022/06/10 04:57:13;;;;;;;8.75;4.93;;;;;;;13.49;100.00;100482.53;12209750;19;20016;-81
2022/06/10 05:01:15;;;;;;;15.70;4.80;;;;;;;13.57;100.00;100482.09;12187391;19;20476;-80
2022/06/10 05:05:17;;;;;;;11.23;4.60;;;;;;;13.65;100.00;100489.97;12203482;19;20020;-82
2022/06/10 05:09:18;;;;;;;7.05;5.10;;;;;;;13.70;100.00;100480.91;12216906;19;20017;-80
2022/06/10 05:13:21;;;;;;;10.40;4.70;;;;;;;13.76;100.00;100488.19;12185394;19;20039;-82
2022/06/10 05:17:22;;;;;;;10.15;5.28;;;;;;;13.88;100.00;100486.97;12217135;19;20035;-81
2022/06/10 05:21:24;;;;;;;7.78;4.38;;;;;;;13.98;100.00;100491.84;12212203;19;20018;-83
2022/06/10 05:25:33;;;;;;;8.93;4.35;;;;;;;14.06;100.00;100482.25;12214267;19;20013;-81
2022/06/10 05:29:34;;;;;;;;;;;;;;;14.10;100.00;100489.78;12198640;19;20034;-81
2022/06/10 05:37:57;;;;;;;7.88;4.60;;;;;;;14.36;100.00;100487.34;12213575;19;20018;-84
2022/06/10 05:42:05;;;;;;;10.30;4.50;;;;;;;14.49;100.00;100503.59;12216488;19;20018;-83
2022/06/10 05:46:07;;;;;;;10.00;5.95;;;;;;;14.59;100.00;100503.72;12190828;19;20031;-82
2022/06/10 05:50:15;;;;;;;9.55;4.47;;;;;;;14.70;100.00;100501.09;12220741;19;20020;-81
2022/06/10 05:54:18;;;;;;;9.18;4.28;;;;;;;14.83;100.00;100503.44;12192813;19;20417;-83
2022/06/10 05:58:20;;;;;;;10.35;4.60;;;;;;;14.97;100.00;100513.03;12200919;19;20057;-82
2022/06/10 06:02:23;;;;;;;9.00;4.37;;;;;;;15.17;100.00;100514.31;12228805;19;20028;-84
2022/06/10 06:06:26;;;;;;;8.63;4.65;;;;;;;15.33;100.00;100518.09;12196958;19;20791;-81
2022/06/10 06:10:28;;;;;;;7.78;4.07;;;;;;;15.47;100.00;100525.72;12225462;19;20014;-82
2022/06/10 06:14:31;;;;;;;10.07;4.33;;;;;;;15.68;100.00;100521.19;12223138;19;20111;-81
2022/06/10 06:18:33;;;;;;;9.07;4.88;;;;;;;15.88;100.00;100526.06;12206999;19;20251;-81
2022/06/10 06:22:35;;;;;;;12.38;5.15;;;;;;;16.07;100.00;100528.41;12232540;19;20451;-82
2022/06/10 06:26:36;;;;;;;12.13;5.13;;;;;;;16.27;100.00;100524.88;12221166;19;20010;-84
2022/06/10 06:30:38;;;;;;;9.43;5.95;;;;;;;16.47;100.00;100526.91;12208337;19;20015;-82
2022/06/10 06:34:41;;;;;;;10.73;6.07;;;;;;;16.65;100.00;100529.22;12232115;19;20463;-82
2022/06/10 06:38:43;;;;;;;12.70;6.03;;;;;;;16.91;99.68;100532.13;12230270;19;20404;-86
2022/06/10 06:42:46;;;;;;;11.48;5.82;;;;;;;17.06;97.51;100534.94;12209197;19;20712;-83
2022/06/10 06:46:48;;;;;;;8.98;4.53;;;;;;;17.33;97.32;100533.84;12231693;19;20019;-81
2022/06/10 06:50:50;;;;;;;9.27;4.53;;;;;;;17.57;96.84;100529.41;12236421;19;20003;-83
2022/06/10 06:54:52;;;;;;;9.23;5.32;;;;;;;17.68;93.53;100525.50;12235854;19;19999;-87
2022/06/10 06:58:54;;;;;;;7.15;4.75;;;;;;;17.96;92.78;100529.66;12256066;19;20007;-85
2022/06/10 07:02:56;;;;;;;8.85;4.78;;;;;;;18.27;92.29;100532.41;12245764;19;20349;-85
2022/06/10 07:06:57;;;;;;;8.82;4.50;;;;;;;18.58;90.69;100521.94;12215836;19;20014;-84
2022/06/10 07:11:01;;;;;;;8.90;4.90;;;;;;;18.83;88.80;100534.16;12238143;19;20011;-85
2022/06/10 07:15:04;;;;;;;9.68;4.65;;;;;;;19.03;87.12;100527.59;12235408;19;20015;-83
2022/06/10 07:19:06;;;;;;;12.93;5.15;;;;;;;19.21;85.28;100528.88;12212077;19;20337;-83
2022/06/10 07:23:08;;;;;;;11.40;4.70;;;;;;;19.39;82.55;100524.56;12233955;19;20013;-84
2022/06/10 07:27:11;;;;;;;12.77;4.68;;;;;;;19.61;82.34;100538.09;12226509;19;20074;-83
2022/06/10 07:31:12;;;;;;;8.47;4.10;;;;;;;19.73;81.38;100531.03;12205486;19;20413;-84
2022/06/10 07:35:15;;;;;;;7.50;4.30;;;;;;;19.73;81.62;100535.78;12227253;19;20014;-82
2022/06/10 07:39:17;;;;;;;9.43;3.55;;;;;;;19.95;80.03;100536.13;12237037;19;20003;-83
2022/06/10 07:43:20;;;;;;;9.32;4.35;;;;;;;20.16;77.34;100539.53;12210370;19;20015;-87
2022/06/10 07:47:23;;;;;;;8.50;4.45;;;;;;;20.41;76.03;100535.63;12233188;19;20010;-86
2022/06/10 07:51:25;;;;;;;5.85;3.55;;;;;;;20.47;72.42;100534.44;12212997;19;20007;-81
2022/06/10 07:55:27;;;;;;;6.05;3.08;;;;;;;20.68;72.20;100532.25;12229560;19;20027;-83
2022/06/10 07:59:30;;;;;;;8.73;3.80;;;;;;;20.87;68.90;100534.25;12236144;19;20015;-84
2022/06/10 08:03:31;;;;;;;5.93;3.55;;;;;;;21.11;70.34;100528.56;12214694;19;20037;-82
2022/06/10 08:07:37;;;;;;;7.10;3.80;;;;;;;21.40;68.75;100525.63;12227661;19;20010;-82
2022/06/10 08:11:39;;;;;;;8.63;3.40;;;;;;;21.64;66.70;100533.09;12227024;19;20007;-83
2022/06/10 08:15:44;;;;;;;6.57;3.38;;;;;;;21.87;63.37;100528.50;12212846;19;20364;-83
2022/06/10 08:19:45;;;;;;;6.05;3.03;;;;;;;21.96;61.77;100532.25;12236059;19;20034;-83
2022/06/10 08:23:49;;;;;;;9.47;4.50;;;;;;;22.21;62.42;100525.34;12233447;19;20007;-85
2022/06/10 08:27:51;;;;;;;8.80;3.08;;;;;;;22.26;62.62;100519.66;12215834;19;20017;-84
2022/06/10 08:31:53;;;;;;;5.95;2.85;;;;;;;22.39;61.41;100527.22;12217820;19;20024;-83
2022/06/10 08:35:59;;;;;;;9.98;3.25;;;;;;;22.58;58.76;100523.50;12227819;19;20594;-87
2022/06/10 08:40:00;;;;;;;5.60;2.00;;;;;;;22.60;58.90;100515.56;12212821;19;20009;-83
2022/06/10 08:44:13;;;;;;;7.72;2.75;;;;;;;22.59;58.58;100531.59;12227939;19;20494;-83
2022/06/10 08:48:22;;;;;;;;;;;;;;;22.57;56.93;100525.47;12228449;19;20011;-82
2022/06/10 08:52:35;;;;;;;4.38;1.92;;;;;;;22.81;56.07;100515.97;12184807;19;20004;-83
2022/06/10 08:56:41;;;;;;;6.63;2.30;;;;;;;23.01;55.20;100514.72;12216478;19;20610;-83
2022/06/10 09:00:45;;;;;;;5.07;2.00;;;;;;;23.18;54.17;100510.09;12197550;19;20082;-85
2022/06/10 09:05:00;;;;;;;4.50;2.15;;;;;;;23.20;52.24;100509.75;12209762;19;20030;-86
2022/06/10 09:09:05;;;;;;;3.20;1.83;;;;;;;23.18;52.91;100515.72;12217008;19;20014;-82
2022/06/10 09:13:39;;;;;;;4.72;2.22;;;;;;;23.49;51.45;100516.94;12181630;19;20038;-82
2022/06/10 09:17:49;;;;;;;7.43;2.33;;;;;;;23.56;52.37;100501.28;12218973;19;20392;-81
2022/06/10 09:21:59;;;;;;;4.10;1.77;;;;;;;23.71;51.11;100502.06;12193328;19;20013;-81
2022/06/10 09:26:08;;;;;;;7.38;2.10;;;;;;;23.91;50.42;100504.31;12210439;19;20086;-82
2022/06/10 09:30:13;;;;;;;4.63;2.00;;;;;;;24.23;49.34;100508.81;12228918;19;20414;-80
2022/06/10 09:34:39;;;;;;;7.72;4.28;;;;;;;24.37;48.05;100511.53;12201065;19;20027;-81
2022/06/10 09:39:02;;;;;;;3.40;1.70;;;;;;;24.55;47.27;100513.25;12214117;19;20073;-81
2022/06/10 09:43:43;;;;;;;18.67;10.93;;;;;;;24.71;46.92;100513.63;12200256;19;20014;-81
2022/06/10 09:47:56;;;;;;;6.03;2.50;;;;;;;24.66;44.32;100524.22;12220915;19;20005;-80
2022/06/10 09:52:17;;;;;;;5.35;3.00;;;;;;;24.76;45.13;100515.47;12197432;19;20060;-80
2022/06/10 09:56:36;;;;;;;6.90;2.13;;;;;;;24.97;44.09;100504.41;12215745;19;20003;-81
2022/06/10 10:00:57;;;;;;;11.15;3.70;;;;;;;25.12;44.09;100506.72;12209996;19;20103;-81
2022/06/10 10:05:36;;;;;;;7.25;3.10;;;;;;;25.15;42.83;100497.63;12235688;19;20015;-81
2022/06/10 10:10:14;;;;;;;14.02;5.65;;;;;;;25.10;42.87;100491.28;12204657;19;20106;-81
2022/06/10 10:14:28;;;;;;;5.03;1.83;;;;;;;25.17;42.15;100491.69;12224793;19;20006;-82
2022/06/10 10:18:57;;;;;;;7.07;2.28;;;;;;;25.06;43.07;100491.13;12217090;19;20007;-81
2022/06/10 10:23:47;;;;;;;62.10;35.13;;;;;;;25.39;42.90;100499.97;12252771;19;20598;-82
2022/06/10 10:28:09;;;;;;;4.57;2.55;;;;;;;25.89;40.32;100490.94;12208493;19;20061;-81
2022/06/10 10:32:17;;;;;;;6.78;2.30;;;;;;;26.03;40.54;100487.91;12236843;19;20022;-82
2022/06/10 10:36:30;;;;;;;4.93;2.22;;;;;;;26.12;39.23;100485.88;12237845;19;20371;-82
2022/06/10 10:40:46;;;;;;;7.65;4.28;;;;;;;26.21;39.38;100482.19;12206299;19;20006;-81
2022/06/10 10:45:03;;;;;;;26.65;17.40;;;;;;;26.07;40.29;100476.75;12249900;19;20010;-81
2022/06/10 10:49:31;;;;;;;9.05;6.10;;;;;;;25.66;40.79;100476.19;12208121;19;20058;-81
2022/06/10 10:53:39;;;;;;;4.03;2.35;;;;;;;26.02;39.75;100471.28;12221866;19;20027;-81
2022/06/10 10:57:59;;;;;;;3.83;2.35;;;;;;;26.31;39.04;100464.84;12187760;19;20037;-81
2022/06/10 11:07:26;;;;;;;18.05;4.07;;;;;;;26.79;37.40;100461.59;12191228;19;20006;-81
2022/06/10 11:11:37;;;;;;;11.82;3.83;;;;;;;26.82;38.80;100458.06;12203585;19;20027;-81
2022/06/10 11:15:52;;;;;;;5.18;1.60;;;;;;;27.02;37.96;100462.09;12198730;19;21305;-80
2022/06/10 11:20:31;;;;;;;16.17;2.88;;;;;;;26.88;36.18;100458.69;12223333;19;20033;-81
2022/06/10 11:24:44;;;;;;;5.78;2.17;;;;;;;27.31;36.75;100456.72;12197378;19;20112;-80
2022/06/10 11:28:46;;;;;;;6.25;2.25;;;;;;;27.59;36.01;100457.78;12212850;19;20053;-81
2022/06/10 11:32:48;;;;;;;6.18;2.05;;;;;;;27.22;36.75;100446.31;12209806;19;20009;-81
2022/06/10 11:36:53;;;;;;;4.23;1.87;;;;;;;27.33;36.21;100443.88;12195561;19;20468;-81
2022/06/10 11:40:58;;;;;;;7.10;2.53;;;;;;;27.63;35.60;100443.72;12207169;19;20264;-81
2022/06/10 11:45:11;;;;;;;3.95;1.67;;;;;;;27.88;34.98;100430.50;12209570;19;20562;-80
2022/06/10 11:49:28;;;;;;;3.38;1.95;;;;;;;28.25;34.18;100430.53;12191196;19;20746;-80
2022/06/10 11:53:45;;;;;;;6.32;2.50;;;;;;;28.65;32.89;100427.81;12216433;19;20018;-82
2022/06/10 12:18:01;;;;;;;6.88;2.67;;;;;;;29.22;29.71;100403.19;12201457;19;20524;-81
2022/06/10 12:22:08;;;;;;;2.55;1.80;;;;;;;30.54;28.68;100394.47;12187933;19;20023;-81
2022/06/10 12:31:47;;;;;;;4.13;2.47;;;;;;;32.55;26.29;100385.75;12207798;19;20034;-80
2022/06/10 12:35:54;;;;;;;2.70;1.58;;;;;;;33.43;24.22;100383.59;12211675;19;20038;-80
2022/06/10 12:40:08;;;;;;;6.75;2.20;;;;;;;34.32;23.23;100383.63;12187598;19;20038;-80
2022/06/10 12:44:28;;;;;;;5.82;2.15;;;;;;;34.44;23.03;100386.16;12207456;19;20034;-80
2022/06/10 12:48:34;;;;;;;5.63;2.03;;;;;;;35.11;22.22;100370.63;12189726;19;20011;-82
2022/06/10 12:52:48;;;;;;;6.78;2.00;;;;;;;35.17;21.66;100374.72;12217298;19;20007;-83
2022/06/10 12:57:30;;;;;;;6.50;2.20;;;;;;;36.09;22.14;100373.28;12225027;19;20010;-82
2022/06/10 13:01:32;;;;;;;4.07;1.75;;;;;;;36.35;20.81;100362.56;12197270;19;20010;-83
2022/06/10 13:11:34;;;;;;;3.53;1.50;;;;;;;37.34;20.07;100357.75;12110845;19;2004632;-83
2022/06/10 13:16:08;;;;;;;3.65;1.60;;;;;;;37.40;19.83;100351.13;12175290;19;20023;-82
2022/06/10 13:20:19;;;;;;;6.95;2.05;;;;;;;38.02;19.97;100348.66;12227516;19;20018;-83
2022/06/10 13:30:18;;;;;;;3.63;1.52;;;;;;;39.07;18.85;100347.09;12224124;19;20006;-82
2022/06/10 13:34:30;;;;;;;4.65;1.60;;;;;;;37.56;19.15;100344.06;12221117;19;20006;-81
2022/06/10 13:38:36;;;;;;;4.75;2.00;;;;;;;35.21;21.93;100346.91;12223989;19;20014;-81
2022/06/10 13:42:40;;;;;;;8.38;2.28;;;;;;;36.21;21.30;100340.47;12202897;19;20020;-81
2022/06/10 13:47:09;;;;;;;5.05;1.92;;;;;;;37.72;19.97;100334.91;12226646;19;20014;-81
2022/06/10 14:02:01;;;;;;;4.57;1.67;;;;;;;39.46;17.76;100327.63;12232973;19;20005;-82
2022/06/10 14:06:12;;;;;;;5.53;1.92;;;;;;;38.98;17.84;100327.47;12240078;19;20006;-83
2022/06/10 14:10:27;;;;;;;4.57;1.95;;;;;;;39.39;17.93;100314.97;12227428;19;19999;-82
2022/06/10 14:20:21;;;;;;;7.15;1.92;;;;;;;41.02;16.40;100311.53;12251885;19;20006;-81
2022/06/10 14:44:59;;;;;;;4.13;2.10;;;;;;;36.02;21.25;100316.72;12265319;19;20033;-82
2022/06/10 14:49:35;;;;;;;4.90;2.10;;;;;;;36.98;20.49;100303.34;12229514;19;20021;-82
2022/06/10 14:53:40;;;;;;;8.98;3.75;;;;;;;38.31;19.19;100306.00;12242587;19;20041;-83
2022/06/10 14:58:09;;;;;;;5.72;2.42;;;;;;;37.33;19.25;100305.19;12228075;19;20011;-81
2022/06/10 15:02:11;;;;;;;6.07;2.22;;;;;;;35.41;20.85;100298.66;12242637;19;20035;-82
2022/06/10 15:06:24;;;;;;;3.33;1.70;;;;;;;34.63;21.25;100300.06;12226814;19;20038;-84
2022/06/10 15:10:27;;;;;;;5.32;2.20;;;;;;;34.01;21.50;100303.72;12205156;19;20098;-84
2022/06/10 15:14:29;;;;;;;4.47;1.80;;;;;;;32.60;23.11;100302.69;12218091;19;20006;-84
2022/06/10 15:18:34;;;;;;;3.10;1.70;;;;;;;31.48;23.96;100295.59;12212927;19;20017;-83
2022/06/10 15:22:39;;;;;;;3.65;1.58;;;;;;;30.58;25.37;100295.81;12236389;19;20014;-84
2022/06/10 15:26:44;;;;;;;2.97;1.60;;;;;;;29.89;26.82;100295.44;12227622;19;20010;-83
2022/06/10 15:30:47;;;;;;;4.63;1.58;;;;;;;29.93;26.58;100297.19;12209693;19;20478;-84
2022/06/10 15:43:43;;;;;;;3.20;1.48;;;;;;;29.45;26.98;100293.53;12210667;19;20014;-84
2022/06/10 15:47:45;;;;;;;4.65;1.83;;;;;;;29.29;27.71;100287.00;12233619;19;20007;-83
2022/06/10 15:52:15;;;;;;;3.75;1.80;;;;;;;29.12;28.26;100290.19;12190134;19;20483;-81
2022/06/10 16:01:19;;;;;;;3.33;1.77;;;;;;;29.02;28.43;100294.41;12214963;19;20015;-85
2022/06/10 16:05:33;;;;;;;5.78;1.60;;;;;;;28.21;29.56;100288.72;12241442;19;20021;-83
2022/06/10 16:10:15;;;;;;;3.05;1.73;;;;;;;27.70;31.18;100288.28;12203979;19;20013;-84
2022/06/10 16:14:19;;;;;;;3.85;1.50;;;;;;;27.18;31.83;100288.94;12220567;19;20044;-83
2022/06/10 16:18:38;;;;;;;5.43;2.13;;;;;;;27.10;32.07;100293.50;12219349;19;20433;-83
2022/06/10 16:22:40;;;;;;;4.15;1.63;;;;;;;27.00;32.15;100288.25;12208437;19;20006;-83
2022/06/10 16:26:42;;;;;;;4.13;1.70;;;;;;;26.93;32.67;100285.19;12219794;19;20493;-83
2022/06/10 16:30:44;;;;;;;4.65;1.83;;;;;;;26.79;33.05;100283.47;12212135;19;20903;-84
2022/06/10 16:34:46;;;;;;;5.90;1.60;;;;;;;26.75;33.04;100281.72;12222158;19;20392;-83
2022/06/10 16:38:48;;;;;;;5.40;1.77;;;;;;;26.53;33.44;100285.72;12234943;19;20614;-83
2022/06/10 16:42:51;;;;;;;;;;;;;;;26.25;33.82;100280.59;12210131;19;20011;-83
2022/06/10 16:46:57;;;;;;;5.82;2.20;;;;;;;26.13;34.50;100275.69;12231423;19;19910;-83
2022/06/10 16:50:59;;;;;;;7.05;1.85;;;;;;;26.02;34.26;100279.28;12224165;19;20010;-83
2022/06/10 16:55:23;;;;;;;3.95;1.90;;;;;;;26.03;34.62;100272.47;12204887;19;20006;-84
2022/06/10 16:59:25;;;;;;;2.73;1.40;;;;;;;25.86;35.34;100270.59;12233267;19;20864;-84
2022/06/10 17:03:32;;;;;;;4.15;1.70;;;;;;;25.82;35.55;100278.06;12211142;19;20068;-84
2022/06/10 17:07:36;;;;;;;2.92;1.50;;;;;;;25.61;36.25;100278.84;12231917;19;20011;-83
2022/06/10 17:11:39;;;;;;;;;;;;;;;25.40;37.56;100277.91;12221508;19;20002;-82
2022/06/10 17:15:41;;;;;;;4.32;1.80;;;;;;;25.20;38.74;100271.03;12204524;19;19938;-82
2022/06/10 17:19:44;;;;;;;;;;;;;;;24.92;39.95;100268.56;12232299;19;20014;-81
2022/06/10 17:23:50;;;;;;;4.85;1.88;;;;;;;24.79;40.36;100267.63;12214743;19;19907;-84
2022/06/10 17:27:53;;;;;;;5.78;1.90;;;;;;;24.65;41.86;100274.59;12225184;19;20034;-83
2022/06/10 17:31:55;;;;;;;4.57;1.90;;;;;;;24.52;42.13;100265.19;12248834;19;20010;-84
2022/06/10 17:35:57;;;;;;;4.67;1.90;;;;;;;24.63;42.27;100271.28;12235212;19;20017;-84
2022/06/10 17:40:00;;;;;;;4.57;2.20;;;;;;;24.57;42.52;100276.28;12221142;19;20054;-82
2022/06/10 17:44:24;;;;;;;3.53;1.67;;;;;;;24.45;43.41;100278.91;12245373;19;20417;-83
2022/06/10 17:48:26;;;;;;;7.28;3.17;;;;;;;24.36;42.81;100275.25;12217862;19;20356;-82
2022/06/10 17:52:28;;;;;;;7.73;2.37;;;;;;;24.28;44.05;100280.56;12232935;19;20019;-82
2022/06/10 17:56:30;;;;;;;3.20;1.90;;;;;;;24.21;43.46;100282.19;12235139;19;20006;-83
2022/06/10 18:00:37;;;;;;;4.57;1.95;;;;;;;24.09;44.29;100280.03;12212281;19;20349;-82
2022/06/10 18:04:39;;;;;;;3.80;2.03;;;;;;;23.93;44.84;100274.03;12231009;19;20501;-83
2022/06/10 18:08:41;;;;;;;6.83;2.13;;;;;;;23.75;45.56;100280.81;12229915;19;20048;-83
2022/06/10 18:12:50;;;;;;;4.23;1.97;;;;;;;23.51;46.55;100270.75;12203063;19;20480;-84
2022/06/10 18:16:53;;;;;;;5.65;2.40;;;;;;;23.36;46.87;100279.63;12218930;19;20048;-83
2022/06/10 18:20:55;;;;;;;5.00;2.15;;;;;;;23.23;46.73;100278.59;12232295;19;20025;-83
2022/06/10 18:24:56;;;;;;;6.93;2.10;;;;;;;23.14;46.49;100278.56;12202025;19;20011;-83
2022/06/10 18:29:05;;;;;;;7.45;2.00;;;;;;;23.48;45.74;100270.59;12222457;19;20086;-84
2022/06/10 18:33:16;;;;;;;4.72;1.98;;;;;;;23.39;46.62;100273.38;12223906;19;20023;-84
2022/06/10 18:37:20;;;;;;;4.78;2.10;;;;;;;23.01;47.96;100270.19;12204901;19;20135;-83
2022/06/10 18:41:25;;;;;;;5.20;2.03;;;;;;;22.62;49.70;100266.94;12223623;19;20826;-84
2022/06/10 18:45:33;;;;;;;8.60;2.63;;;;;;;22.37;50.64;100267.56;12202366;19;20010;-84
2022/06/10 18:49:36;;;;;;;4.57;2.05;;;;;;;22.19;51.18;100272.19;12219522;19;20105;-85
2022/06/10 18:53:38;;;;;;;4.28;2.47;;;;;;;21.99;51.57;100267.88;12218060;19;20006;-85
2022/06/10 18:57:39;;;;;;;5.28;2.10;;;;;;;21.75;52.89;100268.94;12199704;19;19999;-84
2022/06/10 19:01:42;;;;;;;7.25;1.77;;;;;;;21.58;54.06;100277.16;12228207;19;20086;-83
2022/06/10 19:05:52;;;;;;;5.25;2.20;;;;;;;21.38;55.04;100276.44;12222884;19;20011;-84
2022/06/10 19:09:54;;;;;;;4.22;2.03;;;;;;;21.16;56.48;100279.09;12198903;19;20072;-84
2022/06/10 19:13:56;;;;;;;3.55;2.17;;;;;;;20.98;57.43;100282.81;12225761;19;20006;-82
2022/06/10 19:17:58;;;;;;;8.18;2.92;;;;;;;20.78;58.20;100281.19;12220028;19;20010;-83
2022/06/10 19:22:12;;;;;;;5.07;2.13;;;;;;;20.62;59.08;100277.81;12204133;19;20014;-83
2022/06/10 19:26:14;;;;;;;7.53;2.25;;;;;;;20.45;59.91;100284.75;12212219;19;20023;-83
2022/06/10 19:30:17;;;;;;;3.92;2.10;;;;;;;20.33;61.31;100289.16;12217088;19;20102;-83
2022/06/10 19:34:23;;;;;;;5.57;2.20;;;;;;;20.22;61.69;100292.09;12193192;19;20006;-82
2022/06/10 19:38:28;;;;;;;11.20;3.03;;;;;;;20.14;61.93;100289.19;12209240;19;20010;-82
2022/06/10 19:42:37;;;;;;;5.82;2.00;;;;;;;20.15;61.83;100296.44;12185795;19;20449;-81
2022/06/10 19:46:39;;;;;;;5.50;2.72;;;;;;;20.17;61.77;100300.59;12205182;19;20023;-82
2022/06/10 19:50:44;;;;;;;6.00;2.45;;;;;;;20.19;61.56;100298.31;12213278;19;20122;-82
2022/06/10 19:54:46;;;;;;;6.70;2.58;;;;;;;20.24;61.82;100311.41;12187968;19;20025;-82
2022/06/10 19:58:53;;;;;;;6.28;2.25;;;;;;;20.29;61.86;100305.75;12210932;19;20010;-82
2022/06/10 20:02:57;;;;;;;7.43;2.03;;;;;;;20.37;61.92;100304.19;12202402;19;20010;-82
2022/06/10 20:07:10;;;;;;;6.07;2.20;;;;;;;20.40;62.74;100310.03;12186431;19;20010;-82
2022/06/10 20:11:13;;;;;;;4.70;1.90;;;;;;;20.41;62.53;100319.28;12211429;19;20017;-83
2022/06/10 20:15:14;;;;;;;9.00;1.92;;;;;;;20.38;63.07;100317.91;12205404;19;20074;-81
2022/06/10 20:19:23;;;;;;;5.57;1.65;;;;;;;20.31;63.57;100323.03;12187481;19;20619;-82
2022/06/10 20:23:26;;;;;;;4.63;2.22;;;;;;;20.23;63.81;100323.75;12214565;19;20445;-81
2022/06/10 20:27:29;;;;;;;7.15;2.70;;;;;;;20.11;64.67;100326.13;12189700;19;20027;-81
2022/06/10 20:31:46;;;;;;;6.33;1.90;;;;;;;19.97;65.01;100315.69;12206397;19;20011;-81
2022/06/10 20:35:50;;;;;;;5.53;1.95;;;;;;;19.83;65.48;100322.31;12212462;19;20074;-82
2022/06/10 20:39:53;;;;;;;4.22;2.00;;;;;;;19.70;65.95;100323.88;12193440;19;20011;-81